sensor_id;sensor_type;location;lat;lon;timestamp;temperature;humidity
22633;DHT22;11483;55.828;37.488;2023-03-30T00:01:34;8.50;99.90
22633;DHT22;11483;55.828;37.488;2023-03-30T00:04:00;8.50;99.90
22633;DHT22;11483;55.828;37.488;2023-03-30T00:06:27;8.50;99.90
22633;DHT22;11483;55.828;37.488;2023-03-30T00:08:53;8.50;99.90
22633;DHT22;11483;55.828;37.488;2023-03-30T00:11:23;8.50;99.90
22633;DHT22;11483;55.828;37.488;2023-03-30T00:13:49;8.50;99.90
22633;DHT22;11483;55.828;37.488;2023-03-30T00:16:16;8.40;99.90
22633;DHT22;11483;55.828;37.488;2023-03-30T00:18:43;8.40;99.90
22633;DHT22;11483;55.828;37.488;2023-03-30T00:21:12;8.40;99.90
22633;DHT22;11483;55.828;37.488;2023-03-30T00:23:38;8.40;99.90
22633;DHT22;11483;55.828;37.488;2023-03-30T00:26:05;8.30;99.90
22633;DHT22;11483;55.828;37.488;2023-03-30T00:28:31;8.30;99.90
22633;DHT22;11483;55.828;37.488;2023-03-30T00:30:58;8.30;99.90
22633;DHT22;11483;55.828;37.488;2023-03-30T00:33:24;8.40;99.90
22633;DHT22;11483;55.828;37.488;2023-03-30T00:35:54;8.40;99.90
22633;DHT22;11483;55.828;37.488;2023-03-30T00:38:21;8.40;99.90
22633;DHT22;11483;55.828;37.488;2023-03-30T00:40:58;8.40;99.90
22633;DHT22;11483;55.828;37.488;2023-03-30T00:43:26;8.40;99.90
22633;DHT22;11483;55.828;37.488;2023-03-30T00:45:55;8.40;99.90
22633;DHT22;11483;55.828;37.488;2023-03-30T00:51:09;8.40;99.90
22633;DHT22;11483;55.828;37.488;2023-03-30T00:53:39;8.40;99.90
22633;DHT22;11483;55.828;37.488;2023-03-30T00:56:08;8.30;99.90
22633;DHT22;11483;55.828;37.488;2023-03-30T00:58:36;8.30;99.90
22633;DHT22;11483;55.828;37.488;2023-03-30T01:01:04;8.30;99.90
22633;DHT22;11483;55.828;37.488;2023-03-30T01:03:38;8.20;99.90
22633;DHT22;11483;55.828;37.488;2023-03-30T01:06:08;8.20;99.90
22633;DHT22;11483;55.828;37.488;2023-03-30T01:08:35;8.00;99.90
22633;DHT22;11483;55.828;37.488;2023-03-30T01:11:02;7.80;99.90
22633;DHT22;11483;55.828;37.488;2023-03-30T01:13:31;7.70;99.90
22633;DHT22;11483;55.828;37.488;2023-03-30T01:16:10;7.50;99.90
22633;DHT22;11483;55.828;37.488;2023-03-30T01:22:13;7.40;99.90
22633;DHT22;11483;55.828;37.488;2023-03-30T01:40:02;7.20;99.90
22633;DHT22;11483;55.828;37.488;2023-03-30T01:45:15;7.30;99.90
22633;DHT22;11483;55.828;37.488;2023-03-30T01:48:07;7.30;99.90
22633;DHT22;11483;55.828;37.488;2023-03-30T01:51:05;7.40;99.90
22633;DHT22;11483;55.828;37.488;2023-03-30T01:53:48;7.40;99.90
22633;DHT22;11483;55.828;37.488;2023-03-30T01:59:42;7.40;99.90
22633;DHT22;11483;55.828;37.488;2023-03-30T02:02:09;7.40;99.90
22633;DHT22;11483;55.828;37.488;2023-03-30T02:04:39;7.30;99.90
22633;DHT22;11483;55.828;37.488;2023-03-30T02:07:15;7.40;99.90
22633;DHT22;11483;55.828;37.488;2023-03-30T02:09:44;7.40;99.90
22633;DHT22;11483;55.828;37.488;2023-03-30T02:12:12;7.40;99.90
22633;DHT22;11483;55.828;37.488;2023-03-30T02:14:40;7.30;99.90
22633;DHT22;11483;55.828;37.488;2023-03-30T02:19:36;7.20;99.90
22633;DHT22;11483;55.828;37.488;2023-03-30T02:22:03;7.20;99.90
22633;DHT22;11483;55.828;37.488;2023-03-30T02:24:29;7.20;99.90
22633;DHT22;11483;55.828;37.488;2023-03-30T02:26:58;7.20;99.90
22633;DHT22;11483;55.828;37.488;2023-03-30T02:29:25;7.20;99.90
22633;DHT22;11483;55.828;37.488;2023-03-30T02:31:54;7.20;99.90
22633;DHT22;11483;55.828;37.488;2023-03-30T02:39:40;7.00;99.90
22633;DHT22;11483;55.828;37.488;2023-03-30T02:45:28;7.00;99.90
22633;DHT22;11483;55.828;37.488;2023-03-30T02:51:08;6.90;99.90
22633;DHT22;11483;55.828;37.488;2023-03-30T02:59:01;6.60;99.90
22633;DHT22;11483;55.828;37.488;2023-03-30T03:04:20;6.30;99.90
22633;DHT22;11483;55.828;37.488;2023-03-30T03:06:47;6.30;99.90
22633;DHT22;11483;55.828;37.488;2023-03-30T03:09:18;6.20;99.90
22633;DHT22;11483;55.828;37.488;2023-03-30T03:11:44;6.20;99.90
22633;DHT22;11483;55.828;37.488;2023-03-30T03:14:10;6.20;99.90
22633;DHT22;11483;55.828;37.488;2023-03-30T03:16:37;6.20;99.90
22633;DHT22;11483;55.828;37.488;2023-03-30T03:19:03;6.20;99.90
22633;DHT22;11483;55.828;37.488;2023-03-30T03:21:29;6.20;99.90
22633;DHT22;11483;55.828;37.488;2023-03-30T03:23:55;6.20;99.90
22633;DHT22;11483;55.828;37.488;2023-03-30T03:26:21;6.20;99.90
22633;DHT22;11483;55.828;37.488;2023-03-30T03:28:47;6.20;99.90
22633;DHT22;11483;55.828;37.488;2023-03-30T03:31:13;6.30;99.90
22633;DHT22;11483;55.828;37.488;2023-03-30T03:33:39;6.30;99.90
22633;DHT22;11483;55.828;37.488;2023-03-30T03:36:05;6.30;99.90
22633;DHT22;11483;55.828;37.488;2023-03-30T03:38:31;6.40;99.90
22633;DHT22;11483;55.828;37.488;2023-03-30T03:40:58;6.40;99.90
22633;DHT22;11483;55.828;37.488;2023-03-30T03:43:24;6.50;99.90
22633;DHT22;11483;55.828;37.488;2023-03-30T03:45:51;6.40;99.90
22633;DHT22;11483;55.828;37.488;2023-03-30T03:48:19;6.50;99.90
22633;DHT22;11483;55.828;37.488;2023-03-30T03:50:51;6.50;99.90
22633;DHT22;11483;55.828;37.488;2023-03-30T03:53:17;6.50;99.90
22633;DHT22;11483;55.828;37.488;2023-03-30T03:55:44;6.50;99.90
22633;DHT22;11483;55.828;37.488;2023-03-30T03:58:11;6.50;99.90
22633;DHT22;11483;55.828;37.488;2023-03-30T04:00:37;6.50;99.90
22633;DHT22;11483;55.828;37.488;2023-03-30T04:03:03;6.50;99.90
22633;DHT22;11483;55.828;37.488;2023-03-30T04:05:30;6.50;99.90
22633;DHT22;11483;55.828;37.488;2023-03-30T04:07:56;6.50;99.90
22633;DHT22;11483;55.828;37.488;2023-03-30T04:10:22;6.50;99.90
22633;DHT22;11483;55.828;37.488;2023-03-30T04:12:48;6.50;99.90
22633;DHT22;11483;55.828;37.488;2023-03-30T04:15:14;6.60;99.90
22633;DHT22;11483;55.828;37.488;2023-03-30T04:17:40;6.60;99.90
22633;DHT22;11483;55.828;37.488;2023-03-30T04:20:07;6.60;99.90
22633;DHT22;11483;55.828;37.488;2023-03-30T04:22:36;6.60;99.90
22633;DHT22;11483;55.828;37.488;2023-03-30T04:25:07;6.60;99.90
22633;DHT22;11483;55.828;37.488;2023-03-30T04:27:35;6.50;99.90
22633;DHT22;11483;55.828;37.488;2023-03-30T04:30:05;6.50;99.90
22633;DHT22;11483;55.828;37.488;2023-03-30T04:32:31;6.50;99.90
22633;DHT22;11483;55.828;37.488;2023-03-30T04:35:07;6.50;99.90
22633;DHT22;11483;55.828;37.488;2023-03-30T04:37:33;6.50;99.90
22633;DHT22;11483;55.828;37.488;2023-03-30T04:40:00;6.50;99.90
22633;DHT22;11483;55.828;37.488;2023-03-30T04:42:28;6.50;99.90
22633;DHT22;11483;55.828;37.488;2023-03-30T04:44:59;6.50;99.90
22633;DHT22;11483;55.828;37.488;2023-03-30T04:47:27;6.40;99.90
22633;DHT22;11483;55.828;37.488;2023-03-30T04:49:53;6.40;99.90
22633;DHT22;11483;55.828;37.488;2023-03-30T04:52:19;6.40;99.90
22633;DHT22;11483;55.828;37.488;2023-03-30T04:54:45;6.40;99.90
22633;DHT22;11483;55.828;37.488;2023-03-30T04:57:12;6.40;99.90
22633;DHT22;11483;55.828;37.488;2023-03-30T04:59:39;6.40;99.90
22633;DHT22;11483;55.828;37.488;2023-03-30T05:02:05;6.50;99.90
22633;DHT22;11483;55.828;37.488;2023-03-30T05:04:31;6.60;99.90
22633;DHT22;11483;55.828;37.488;2023-03-30T05:06:57;6.70;99.90
22633;DHT22;11483;55.828;37.488;2023-03-30T05:09:23;6.60;99.90
22633;DHT22;11483;55.828;37.488;2023-03-30T05:11:49;6.70;99.90
22633;DHT22;11483;55.828;37.488;2023-03-30T05:14:15;6.70;99.90
22633;DHT22;11483;55.828;37.488;2023-03-30T05:16:41;6.80;99.90
22633;DHT22;11483;55.828;37.488;2023-03-30T05:19:07;6.80;99.90
22633;DHT22;11483;55.828;37.488;2023-03-30T05:21:33;6.90;99.90
22633;DHT22;11483;55.828;37.488;2023-03-30T05:23:59;7.00;99.90
22633;DHT22;11483;55.828;37.488;2023-03-30T05:26:25;7.00;99.90
22633;DHT22;11483;55.828;37.488;2023-03-30T05:28:53;7.10;99.90
22633;DHT22;11483;55.828;37.488;2023-03-30T05:31:19;7.10;99.90
22633;DHT22;11483;55.828;37.488;2023-03-30T05:33:45;7.10;99.90
22633;DHT22;11483;55.828;37.488;2023-03-30T05:36:11;7.10;99.90
22633;DHT22;11483;55.828;37.488;2023-03-30T05:38:37;7.10;99.90
22633;DHT22;11483;55.828;37.488;2023-03-30T05:41:04;7.10;99.90
22633;DHT22;11483;55.828;37.488;2023-03-30T05:43:32;7.20;99.90
22633;DHT22;11483;55.828;37.488;2023-03-30T05:45:58;7.30;99.90
22633;DHT22;11483;55.828;37.488;2023-03-30T05:48:24;7.30;99.90
22633;DHT22;11483;55.828;37.488;2023-03-30T05:50:50;7.20;99.90
22633;DHT22;11483;55.828;37.488;2023-03-30T05:53:16;7.20;99.90
22633;DHT22;11483;55.828;37.488;2023-03-30T05:55:43;7.30;99.90
22633;DHT22;11483;55.828;37.488;2023-03-30T05:58:11;7.30;99.90
22633;DHT22;11483;55.828;37.488;2023-03-30T06:00:37;7.40;99.90
22633;DHT22;11483;55.828;37.488;2023-03-30T06:03:03;7.40;99.90
22633;DHT22;11483;55.828;37.488;2023-03-30T06:05:29;7.40;99.90
22633;DHT22;11483;55.828;37.488;2023-03-30T06:07:58;7.50;99.90
22633;DHT22;11483;55.828;37.488;2023-03-30T06:10:25;7.50;99.90
22633;DHT22;11483;55.828;37.488;2023-03-30T06:12:52;7.60;99.90
22633;DHT22;11483;55.828;37.488;2023-03-30T06:15:18;7.80;99.90
22633;DHT22;11483;55.828;37.488;2023-03-30T06:17:44;8.00;99.90
22633;DHT22;11483;55.828;37.488;2023-03-30T06:20:10;8.00;99.90
22633;DHT22;11483;55.828;37.488;2023-03-30T06:22:38;7.80;99.90
22633;DHT22;11483;55.828;37.488;2023-03-30T06:25:07;7.80;99.90
22633;DHT22;11483;55.828;37.488;2023-03-30T06:27:34;7.80;99.90
22633;DHT22;11483;55.828;37.488;2023-03-30T06:30:00;7.80;99.90
22633;DHT22;11483;55.828;37.488;2023-03-30T06:32:27;7.90;99.90
22633;DHT22;11483;55.828;37.488;2023-03-30T06:34:52;7.90;99.90
22633;DHT22;11483;55.828;37.488;2023-03-30T06:37:19;8.00;99.90
22633;DHT22;11483;55.828;37.488;2023-03-30T06:39:45;8.10;99.90
22633;DHT22;11483;55.828;37.488;2023-03-30T06:42:11;8.20;99.90
22633;DHT22;11483;55.828;37.488;2023-03-30T06:44:37;8.30;99.90
22633;DHT22;11483;55.828;37.488;2023-03-30T06:47:04;8.40;99.90
22633;DHT22;11483;55.828;37.488;2023-03-30T06:49:31;8.40;99.90
22633;DHT22;11483;55.828;37.488;2023-03-30T06:51:57;8.50;99.90
22633;DHT22;11483;55.828;37.488;2023-03-30T06:54:23;8.50;99.90
22633;DHT22;11483;55.828;37.488;2023-03-30T06:56:49;8.60;99.90
22633;DHT22;11483;55.828;37.488;2023-03-30T06:59:17;8.70;99.90
22633;DHT22;11483;55.828;37.488;2023-03-30T07:01:44;8.80;99.90
22633;DHT22;11483;55.828;37.488;2023-03-30T07:04:10;9.00;99.90
22633;DHT22;11483;55.828;37.488;2023-03-30T07:06:36;9.10;99.90
22633;DHT22;11483;55.828;37.488;2023-03-30T07:09:02;9.20;99.90
22633;DHT22;11483;55.828;37.488;2023-03-30T07:11:31;9.50;99.90
22633;DHT22;11483;55.828;37.488;2023-03-30T07:13:57;9.60;99.90
22633;DHT22;11483;55.828;37.488;2023-03-30T07:16:26;9.70;99.90
22633;DHT22;11483;55.828;37.488;2023-03-30T07:18:52;9.80;99.90
22633;DHT22;11483;55.828;37.488;2023-03-30T07:21:18;9.90;99.90
22633;DHT22;11483;55.828;37.488;2023-03-30T07:23:44;10.00;99.90
22633;DHT22;11483;55.828;37.488;2023-03-30T07:26:10;10.20;99.90
22633;DHT22;11483;55.828;37.488;2023-03-30T07:28:37;10.00;99.90
22633;DHT22;11483;55.828;37.488;2023-03-30T07:31:07;9.60;99.90
22633;DHT22;11483;55.828;37.488;2023-03-30T07:33:34;9.50;99.90
22633;DHT22;11483;55.828;37.488;2023-03-30T07:36:02;9.40;99.90
22633;DHT22;11483;55.828;37.488;2023-03-30T07:38:28;9.10;99.90
22633;DHT22;11483;55.828;37.488;2023-03-30T07:40:55;8.80;99.90
22633;DHT22;11483;55.828;37.488;2023-03-30T07:43:21;8.70;99.90
22633;DHT22;11483;55.828;37.488;2023-03-30T07:45:47;8.60;99.90
22633;DHT22;11483;55.828;37.488;2023-03-30T07:48:13;8.60;99.90
22633;DHT22;11483;55.828;37.488;2023-03-30T07:50:39;8.60;99.90
22633;DHT22;11483;55.828;37.488;2023-03-30T07:53:05;8.60;99.90
22633;DHT22;11483;55.828;37.488;2023-03-30T07:55:31;8.70;99.90
22633;DHT22;11483;55.828;37.488;2023-03-30T07:57:57;8.60;99.90
22633;DHT22;11483;55.828;37.488;2023-03-30T08:00:23;8.50;99.90
22633;DHT22;11483;55.828;37.488;2023-03-30T08:02:49;8.40;99.90
22633;DHT22;11483;55.828;37.488;2023-03-30T08:05:16;8.20;99.90
22633;DHT22;11483;55.828;37.488;2023-03-30T08:07:43;8.20;99.90
22633;DHT22;11483;55.828;37.488;2023-03-30T08:10:09;8.10;99.90
22633;DHT22;11483;55.828;37.488;2023-03-30T08:12:35;8.20;99.90
22633;DHT22;11483;55.828;37.488;2023-03-30T08:15:03;8.10;99.90
22633;DHT22;11483;55.828;37.488;2023-03-30T08:17:29;8.00;99.90
22633;DHT22;11483;55.828;37.488;2023-03-30T08:19:55;8.00;99.90
22633;DHT22;11483;55.828;37.488;2023-03-30T08:22:21;8.10;99.90
22633;DHT22;11483;55.828;37.488;2023-03-30T08:24:47;8.10;99.90
22633;DHT22;11483;55.828;37.488;2023-03-30T08:27:13;8.10;99.90
22633;DHT22;11483;55.828;37.488;2023-03-30T08:29:39;8.10;99.90
22633;DHT22;11483;55.828;37.488;2023-03-30T08:32:06;8.30;99.90
22633;DHT22;11483;55.828;37.488;2023-03-30T08:34:32;8.30;99.90
22633;DHT22;11483;55.828;37.488;2023-03-30T08:36:58;8.40;99.90
22633;DHT22;11483;55.828;37.488;2023-03-30T08:39:24;8.40;99.90
22633;DHT22;11483;55.828;37.488;2023-03-30T08:44:34;8.10;99.90
22633;DHT22;11483;55.828;37.488;2023-03-30T08:47:04;7.50;99.90
22633;DHT22;11483;55.828;37.488;2023-03-30T08:49:37;7.10;99.90
22633;DHT22;11483;55.828;37.488;2023-03-30T08:52:04;6.80;99.90
22633;DHT22;11483;55.828;37.488;2023-03-30T08:54:32;6.60;99.90
22633;DHT22;11483;55.828;37.488;2023-03-30T09:02:47;6.10;99.90
22633;DHT22;11483;55.828;37.488;2023-03-30T09:05:30;6.00;99.90
22633;DHT22;11483;55.828;37.488;2023-03-30T09:10:28;5.70;99.90
22633;DHT22;11483;55.828;37.488;2023-03-30T09:12:57;5.70;99.90
22633;DHT22;11483;55.828;37.488;2023-03-30T09:17:58;5.60;99.90
22633;DHT22;11483;55.828;37.488;2023-03-30T09:20:27;5.60;99.90
22633;DHT22;11483;55.828;37.488;2023-03-30T09:22:54;5.50;99.90
22633;DHT22;11483;55.828;37.488;2023-03-30T09:25:36;5.50;99.90
22633;DHT22;11483;55.828;37.488;2023-03-30T09:28:14;5.40;99.90
22633;DHT22;11483;55.828;37.488;2023-03-30T09:35:59;5.30;99.90
22633;DHT22;11483;55.828;37.488;2023-03-30T09:38:30;5.30;99.90
22633;DHT22;11483;55.828;37.488;2023-03-30T09:41:05;5.30;99.90
22633;DHT22;11483;55.828;37.488;2023-03-30T09:43:43;5.20;99.90
22633;DHT22;11483;55.828;37.488;2023-03-30T09:46:14;5.10;99.90
22633;DHT22;11483;55.828;37.488;2023-03-30T09:48:45;5.10;99.90
22633;DHT22;11483;55.828;37.488;2023-03-30T09:51:23;5.20;99.90
22633;DHT22;11483;55.828;37.488;2023-03-30T09:54:01;5.30;99.90
22633;DHT22;11483;55.828;37.488;2023-03-30T09:56:35;5.50;99.90
22633;DHT22;11483;55.828;37.488;2023-03-30T10:01:52;5.80;99.90
22633;DHT22;11483;55.828;37.488;2023-03-30T10:04:32;5.80;99.90
22633;DHT22;11483;55.828;37.488;2023-03-30T10:06:58;5.70;99.90
22633;DHT22;11483;55.828;37.488;2023-03-30T10:09:24;5.70;99.90
22633;DHT22;11483;55.828;37.488;2023-03-30T10:11:51;5.80;99.90
22633;DHT22;11483;55.828;37.488;2023-03-30T10:14:33;5.70;99.90
22633;DHT22;11483;55.828;37.488;2023-03-30T10:17:01;5.60;99.90
22633;DHT22;11483;55.828;37.488;2023-03-30T10:19:28;5.50;99.90
22633;DHT22;11483;55.828;37.488;2023-03-30T10:21:59;5.50;99.90
22633;DHT22;11483;55.828;37.488;2023-03-30T10:24:30;5.60;99.90
22633;DHT22;11483;55.828;37.488;2023-03-30T10:27:12;5.70;99.90
22633;DHT22;11483;55.828;37.488;2023-03-30T10:29:38;5.70;99.90
22633;DHT22;11483;55.828;37.488;2023-03-30T10:32:10;5.70;99.90
22633;DHT22;11483;55.828;37.488;2023-03-30T10:34:41;5.60;99.90
22633;DHT22;11483;55.828;37.488;2023-03-30T10:37:14;5.60;99.90
22633;DHT22;11483;55.828;37.488;2023-03-30T10:39:43;5.50;99.90
22633;DHT22;11483;55.828;37.488;2023-03-30T10:42:15;5.50;99.90
22633;DHT22;11483;55.828;37.488;2023-03-30T10:44:52;5.30;99.90
22633;DHT22;11483;55.828;37.488;2023-03-30T10:50:04;5.20;99.90
22633;DHT22;11483;55.828;37.488;2023-03-30T10:53:04;5.10;99.90
22633;DHT22;11483;55.828;37.488;2023-03-30T11:04:17;4.90;99.90
22633;DHT22;11483;55.828;37.488;2023-03-30T11:06:48;4.90;99.90
22633;DHT22;11483;55.828;37.488;2023-03-30T11:09:19;4.90;99.90
22633;DHT22;11483;55.828;37.488;2023-03-30T11:11:59;4.80;99.90
22633;DHT22;11483;55.828;37.488;2023-03-30T11:14:57;4.70;99.90
22633;DHT22;11483;55.828;37.488;2023-03-30T11:18:18;4.70;99.90
22633;DHT22;11483;55.828;37.488;2023-03-30T11:20:34;4.80;99.90
22633;DHT22;11483;55.828;37.488;2023-03-30T11:23:20;4.90;99.90
22633;DHT22;11483;55.828;37.488;2023-03-30T11:26:03;4.90;99.90
22633;DHT22;11483;55.828;37.488;2023-03-30T11:28:46;4.90;99.90
22633;DHT22;11483;55.828;37.488;2023-03-30T11:34:14;5.00;99.90
22633;DHT22;11483;55.828;37.488;2023-03-30T11:36:53;5.00;99.90
22633;DHT22;11483;55.828;37.488;2023-03-30T11:39:37;4.90;99.90
22633;DHT22;11483;55.828;37.488;2023-03-30T11:42:28;4.80;99.90
22633;DHT22;11483;55.828;37.488;2023-03-30T11:44:55;4.80;99.90
22633;DHT22;11483;55.828;37.488;2023-03-30T11:47:44;4.80;99.90
22633;DHT22;11483;55.828;37.488;2023-03-30T11:56:07;4.70;99.90
22633;DHT22;11483;55.828;37.488;2023-03-30T12:04:09;4.40;99.90
22633;DHT22;11483;55.828;37.488;2023-03-30T12:07:02;4.40;99.90
22633;DHT22;11483;55.828;37.488;2023-03-30T12:09:40;4.60;99.90
22633;DHT22;11483;55.828;37.488;2023-03-30T12:12:27;4.60;99.90
22633;DHT22;11483;55.828;37.488;2023-03-30T12:20:57;4.30;99.90
22633;DHT22;11483;55.828;37.488;2023-03-30T12:26:19;4.10;99.90
22633;DHT22;11483;55.828;37.488;2023-03-30T12:29:05;4.10;99.90
22633;DHT22;11483;55.828;37.488;2023-03-30T12:34:22;3.90;99.90
22633;DHT22;11483;55.828;37.488;2023-03-30T12:36:53;4.00;99.90
22633;DHT22;11483;55.828;37.488;2023-03-30T12:42:16;3.90;99.90
22633;DHT22;11483;55.828;37.488;2023-03-30T13:03:33;3.80;99.90
22633;DHT22;11483;55.828;37.488;2023-03-30T13:06:02;3.90;99.90
22633;DHT22;11483;55.828;37.488;2023-03-30T13:11:11;3.90;99.90
22633;DHT22;11483;55.828;37.488;2023-03-30T13:13:58;3.90;99.90
22633;DHT22;11483;55.828;37.488;2023-03-30T13:19:42;3.90;99.90
22633;DHT22;11483;55.828;37.488;2023-03-30T13:29:40;3.60;99.90
22633;DHT22;11483;55.828;37.488;2023-03-30T13:32:19;3.50;99.90
22633;DHT22;11483;55.828;37.488;2023-03-30T13:40:20;3.40;99.90
22633;DHT22;11483;55.828;37.488;2023-03-30T13:43:13;3.40;99.90
22633;DHT22;11483;55.828;37.488;2023-03-30T13:51:00;3.50;99.90
22633;DHT22;11483;55.828;37.488;2023-03-30T13:53:30;3.50;99.90
22633;DHT22;11483;55.828;37.488;2023-03-30T13:55:58;3.40;99.90
22633;DHT22;11483;55.828;37.488;2023-03-30T13:58:30;3.40;99.90
22633;DHT22;11483;55.828;37.488;2023-03-30T14:01:01;3.30;99.90
22633;DHT22;11483;55.828;37.488;2023-03-30T14:03:42;3.30;99.90
22633;DHT22;11483;55.828;37.488;2023-03-30T14:08:39;3.20;99.90
22633;DHT22;11483;55.828;37.488;2023-03-30T14:11:21;3.20;99.90
22633;DHT22;11483;55.828;37.488;2023-03-30T14:13:52;3.20;99.90
22633;DHT22;11483;55.828;37.488;2023-03-30T14:16:25;3.10;99.90
22633;DHT22;11483;55.828;37.488;2023-03-30T14:19:08;3.10;99.90
22633;DHT22;11483;55.828;37.488;2023-03-30T14:21:37;3.10;99.90
22633;DHT22;11483;55.828;37.488;2023-03-30T14:24:04;3.00;99.90
22633;DHT22;11483;55.828;37.488;2023-03-30T14:26:30;2.90;99.90
22633;DHT22;11483;55.828;37.488;2023-03-30T14:29:02;2.90;99.90
22633;DHT22;11483;55.828;37.488;2023-03-30T14:31:41;2.90;99.90
22633;DHT22;11483;55.828;37.488;2023-03-30T14:34:25;2.80;99.90
22633;DHT22;11483;55.828;37.488;2023-03-30T14:36:53;2.80;99.90
22633;DHT22;11483;55.828;37.488;2023-03-30T14:39:21;2.80;99.90
22633;DHT22;11483;55.828;37.488;2023-03-30T14:41:49;2.80;99.90
22633;DHT22;11483;55.828;37.488;2023-03-30T14:44:18;2.80;99.90
22633;DHT22;11483;55.828;37.488;2023-03-30T14:46:50;2.80;99.90
22633;DHT22;11483;55.828;37.488;2023-03-30T14:51:50;2.70;99.90
22633;DHT22;11483;55.828;37.488;2023-03-30T14:54:19;2.70;99.90
22633;DHT22;11483;55.828;37.488;2023-03-30T14:56:52;2.70;99.90
22633;DHT22;11483;55.828;37.488;2023-03-30T14:59:22;2.70;99.90
22633;DHT22;11483;55.828;37.488;2023-03-30T15:01:48;2.70;99.90
22633;DHT22;11483;55.828;37.488;2023-03-30T15:04:17;2.60;99.90
22633;DHT22;11483;55.828;37.488;2023-03-30T15:06:45;2.50;99.90
22633;DHT22;11483;55.828;37.488;2023-03-30T15:09:20;2.50;99.90
22633;DHT22;11483;55.828;37.488;2023-03-30T15:11:54;2.40;99.90
22633;DHT22;11483;55.828;37.488;2023-03-30T15:14:21;2.40;99.90
22633;DHT22;11483;55.828;37.488;2023-03-30T15:16:49;2.50;99.90
22633;DHT22;11483;55.828;37.488;2023-03-30T15:19:33;2.60;99.90
22633;DHT22;11483;55.828;37.488;2023-03-30T15:22:12;2.50;99.90
22633;DHT22;11483;55.828;37.488;2023-03-30T15:24:41;2.60;99.90
22633;DHT22;11483;55.828;37.488;2023-03-30T15:27:10;2.60;99.90
22633;DHT22;11483;55.828;37.488;2023-03-30T15:29:39;2.60;99.90
22633;DHT22;11483;55.828;37.488;2023-03-30T15:32:13;2.50;99.90
22633;DHT22;11483;55.828;37.488;2023-03-30T15:35:00;2.50;99.90
22633;DHT22;11483;55.828;37.488;2023-03-30T15:37:26;2.50;99.90
22633;DHT22;11483;55.828;37.488;2023-03-30T15:39:52;2.50;99.90
22633;DHT22;11483;55.828;37.488;2023-03-30T15:42:29;2.50;99.90
22633;DHT22;11483;55.828;37.488;2023-03-30T15:45:10;2.50;99.90
22633;DHT22;11483;55.828;37.488;2023-03-30T15:47:37;2.50;99.90
22633;DHT22;11483;55.828;37.488;2023-03-30T15:50:04;2.40;99.90
22633;DHT22;11483;55.828;37.488;2023-03-30T15:52:36;2.40;99.90
22633;DHT22;11483;55.828;37.488;2023-03-30T15:55:17;2.60;99.90
22633;DHT22;11483;55.828;37.488;2023-03-30T15:57:46;2.50;99.90
22633;DHT22;11483;55.828;37.488;2023-03-30T16:00:17;2.50;99.90
22633;DHT22;11483;55.828;37.488;2023-03-30T16:02:53;2.40;99.90
22633;DHT22;11483;55.828;37.488;2023-03-30T16:05:24;2.30;99.90
22633;DHT22;11483;55.828;37.488;2023-03-30T16:07:50;2.30;99.90
22633;DHT22;11483;55.828;37.488;2023-03-30T16:10:19;2.30;99.90
22633;DHT22;11483;55.828;37.488;2023-03-30T16:12:50;2.40;99.90
22633;DHT22;11483;55.828;37.488;2023-03-30T16:15:22;2.40;99.90
22633;DHT22;11483;55.828;37.488;2023-03-30T16:17:49;2.40;99.90
22633;DHT22;11483;55.828;37.488;2023-03-30T16:20:16;2.40;99.90
22633;DHT22;11483;55.828;37.488;2023-03-30T16:22:43;2.30;99.90
22633;DHT22;11483;55.828;37.488;2023-03-30T16:25:09;2.30;99.90
22633;DHT22;11483;55.828;37.488;2023-03-30T16:27:35;2.30;99.90
22633;DHT22;11483;55.828;37.488;2023-03-30T16:30:45;2.20;99.90
22633;DHT22;11483;55.828;37.488;2023-03-30T16:33:04;2.20;99.90
22633;DHT22;11483;55.828;37.488;2023-03-30T16:35:30;2.10;99.90
22633;DHT22;11483;55.828;37.488;2023-03-30T16:37:57;2.00;99.90
22633;DHT22;11483;55.828;37.488;2023-03-30T16:40:31;2.00;99.90
22633;DHT22;11483;55.828;37.488;2023-03-30T16:42:58;2.10;99.90
22633;DHT22;11483;55.828;37.488;2023-03-30T16:45:25;2.10;99.90
22633;DHT22;11483;55.828;37.488;2023-03-30T16:47:52;2.00;99.90
22633;DHT22;11483;55.828;37.488;2023-03-30T16:50:21;2.00;99.90
22633;DHT22;11483;55.828;37.488;2023-03-30T16:52:48;1.90;99.90
22633;DHT22;11483;55.828;37.488;2023-03-30T16:55:15;2.00;99.90
22633;DHT22;11483;55.828;37.488;2023-03-30T16:57:41;1.90;99.90
22633;DHT22;11483;55.828;37.488;2023-03-30T17:02:41;2.00;99.90
22633;DHT22;11483;55.828;37.488;2023-03-30T17:05:07;2.00;99.90
22633;DHT22;11483;55.828;37.488;2023-03-30T17:07:32;2.10;99.90
22633;DHT22;11483;55.828;37.488;2023-03-30T17:10:16;2.10;99.90
22633;DHT22;11483;55.828;37.488;2023-03-30T17:12:44;2.10;99.90
22633;DHT22;11483;55.828;37.488;2023-03-30T17:15:10;2.10;99.90
22633;DHT22;11483;55.828;37.488;2023-03-30T17:17:36;2.00;99.90
22633;DHT22;11483;55.828;37.488;2023-03-30T17:20:22;2.10;99.90
22633;DHT22;11483;55.828;37.488;2023-03-30T17:22:49;1.90;99.90
22633;DHT22;11483;55.828;37.488;2023-03-30T17:25:16;1.80;99.90
22633;DHT22;11483;55.828;37.488;2023-03-30T17:27:46;1.80;99.90
22633;DHT22;11483;55.828;37.488;2023-03-30T17:30:34;1.80;99.90
22633;DHT22;11483;55.828;37.488;2023-03-30T17:33:01;1.90;99.90
22633;DHT22;11483;55.828;37.488;2023-03-30T17:35:27;1.80;99.90
22633;DHT22;11483;55.828;37.488;2023-03-30T17:37:53;1.80;99.90
22633;DHT22;11483;55.828;37.488;2023-03-30T17:40:28;1.80;99.90
22633;DHT22;11483;55.828;37.488;2023-03-30T17:42:54;1.80;99.90
22633;DHT22;11483;55.828;37.488;2023-03-30T17:45:23;1.80;99.90
22633;DHT22;11483;55.828;37.488;2023-03-30T17:47:49;1.70;99.90
22633;DHT22;11483;55.828;37.488;2023-03-30T17:50:31;1.70;99.90
22633;DHT22;11483;55.828;37.488;2023-03-30T17:52:58;1.70;99.90
22633;DHT22;11483;55.828;37.488;2023-03-30T17:55:27;1.80;99.90
22633;DHT22;11483;55.828;37.488;2023-03-30T17:57:54;1.80;99.90
22633;DHT22;11483;55.828;37.488;2023-03-30T18:00:30;1.80;99.90
22633;DHT22;11483;55.828;37.488;2023-03-30T18:02:57;1.90;99.90
22633;DHT22;11483;55.828;37.488;2023-03-30T18:05:25;1.90;99.90
22633;DHT22;11483;55.828;37.488;2023-03-30T18:07:52;1.90;99.90
22633;DHT22;11483;55.828;37.488;2023-03-30T18:10:33;1.80;99.90
22633;DHT22;11483;55.828;37.488;2023-03-30T18:13:00;1.80;99.90
22633;DHT22;11483;55.828;37.488;2023-03-30T18:15:26;1.80;99.90
22633;DHT22;11483;55.828;37.488;2023-03-30T18:17:53;1.70;99.90
22633;DHT22;11483;55.828;37.488;2023-03-30T18:20:39;1.80;99.90
22633;DHT22;11483;55.828;37.488;2023-03-30T18:23:05;1.90;99.90
22633;DHT22;11483;55.828;37.488;2023-03-30T18:25:31;1.90;99.90
22633;DHT22;11483;55.828;37.488;2023-03-30T18:27:57;1.80;99.90
22633;DHT22;11483;55.828;37.488;2023-03-30T18:30:25;1.90;99.90